sensor_id;sensor_type;location;lat;lon;timestamp;P1;durP1;ratioP1;P2;durP2;ratioP2
40449;SDS011;41787;53.570;10.032;2022-07-18T00:01:01;3.88;;;2.08;;
40449;SDS011;41787;53.570;10.032;2022-07-18T00:03:27;3.53;;;1.77;;
40449;SDS011;41787;53.570;10.032;2022-07-18T00:05:53;4.80;;;2.03;;
40449;SDS011;41787;53.570;10.032;2022-07-18T00:08:19;2.58;;;1.83;;
40449;SDS011;41787;53.570;10.032;2022-07-18T00:10:45;3.22;;;2.50;;
40449;SDS011;41787;53.570;10.032;2022-07-18T00:13:11;4.53;;;2.20;;
40449;SDS011;41787;53.570;10.032;2022-07-18T00:15:37;4.05;;;2.10;;
40449;SDS011;41787;53.570;10.032;2022-07-18T00:18:03;4.60;;;2.30;;
40449;SDS011;41787;53.570;10.032;2022-07-18T00:20:29;5.78;;;2.10;;
40449;SDS011;41787;53.570;10.032;2022-07-18T00:22:55;5.20;;;2.40;;
40449;SDS011;41787;53.570;10.032;2022-07-18T00:25:21;4.53;;;2.60;;
40449;SDS011;41787;53.570;10.032;2022-07-18T00:27:48;4.95;;;2.58;;
40449;SDS011;41787;53.570;10.032;2022-07-18T00:30:14;4.90;;;2.53;;
40449;SDS011;41787;53.570;10.032;2022-07-18T00:32:40;4.10;;;2.45;;
40449;SDS011;41787;53.570;10.032;2022-07-18T00:35:06;5.97;;;2.53;;
40449;SDS011;41787;53.570;10.032;2022-07-18T00:37:33;4.85;;;2.75;;
40449;SDS011;41787;53.570;10.032;2022-07-18T00:39:59;4.60;;;2.80;;
40449;SDS011;41787;53.570;10.032;2022-07-18T00:42:25;5.28;;;2.50;;
40449;SDS011;41787;53.570;10.032;2022-07-18T00:44:54;4.30;;;2.38;;
40449;SDS011;41787;53.570;10.032;2022-07-18T00:47:20;4.05;;;2.35;;
40449;SDS011;41787;53.570;10.032;2022-07-18T00:49:46;3.50;;;2.38;;
40449;SDS011;41787;53.570;10.032;2022-07-18T00:52:13;4.88;;;2.17;;
40449;SDS011;41787;53.570;10.032;2022-07-18T00:54:39;3.22;;;2.35;;
40449;SDS011;41787;53.570;10.032;2022-07-18T00:57:05;6.35;;;2.83;;
40449;SDS011;41787;53.570;10.032;2022-07-18T00:59:31;4.60;;;2.63;;
40449;SDS011;41787;53.570;10.032;2022-07-18T01:02:16;4.15;;;2.50;;
40449;SDS011;41787;53.570;10.032;2022-07-18T01:04:42;4.63;;;2.85;;
40449;SDS011;41787;53.570;10.032;2022-07-18T01:07:08;4.82;;;2.75;;
40449;SDS011;41787;53.570;10.032;2022-07-18T01:09:34;4.47;;;2.97;;
40449;SDS011;41787;53.570;10.032;2022-07-18T01:12:00;6.95;;;3.10;;
40449;SDS011;41787;53.570;10.032;2022-07-18T01:14:27;4.03;;;2.70;;
40449;SDS011;41787;53.570;10.032;2022-07-18T01:16:53;4.65;;;2.88;;
40449;SDS011;41787;53.570;10.032;2022-07-18T01:19:19;5.25;;;2.50;;
40449;SDS011;41787;53.570;10.032;2022-07-18T01:21:45;4.75;;;2.85;;
40449;SDS011;41787;53.570;10.032;2022-07-18T01:24:11;4.03;;;3.00;;
40449;SDS011;41787;53.570;10.032;2022-07-18T01:26:37;5.00;;;2.55;;
40449;SDS011;41787;53.570;10.032;2022-07-18T01:29:03;5.03;;;2.78;;
40449;SDS011;41787;53.570;10.032;2022-07-18T01:31:29;3.58;;;2.53;;
40449;SDS011;41787;53.570;10.032;2022-07-18T01:33:58;7.03;;;2.65;;
40449;SDS011;41787;53.570;10.032;2022-07-18T01:36:24;4.18;;;2.60;;
40449;SDS011;41787;53.570;10.032;2022-07-18T01:38:50;4.07;;;2.47;;
40449;SDS011;41787;53.570;10.032;2022-07-18T01:41:16;5.63;;;2.65;;
40449;SDS011;41787;53.570;10.032;2022-07-18T01:43:42;7.80;;;2.65;;
40449;SDS011;41787;53.570;10.032;2022-07-18T01:46:11;5.60;;;2.88;;
40449;SDS011;41787;53.570;10.032;2022-07-18T01:48:38;5.13;;;2.75;;
40449;SDS011;41787;53.570;10.032;2022-07-18T01:51:04;5.32;;;2.92;;
40449;SDS011;41787;53.570;10.032;2022-07-18T01:53:30;3.63;;;2.70;;
40449;SDS011;41787;53.570;10.032;2022-07-18T01:55:56;4.78;;;2.67;;
40449;SDS011;41787;53.570;10.032;2022-07-18T01:58:22;4.18;;;2.65;;
40449;SDS011;41787;53.570;10.032;2022-07-18T02:00:48;4.70;;;2.67;;
40449;SDS011;41787;53.570;10.032;2022-07-18T02:03:14;6.43;;;2.67;;
40449;SDS011;41787;53.570;10.032;2022-07-18T02:05:40;6.30;;;3.28;;
40449;SDS011;41787;53.570;10.032;2022-07-18T02:08:05;7.47;;;2.97;;
40449;SDS011;41787;53.570;10.032;2022-07-18T02:10:31;5.45;;;2.83;;
40449;SDS011;41787;53.570;10.032;2022-07-18T02:12:57;6.07;;;2.53;;
40449;SDS011;41787;53.570;10.032;2022-07-18T02:15:23;5.90;;;2.58;;
40449;SDS011;41787;53.570;10.032;2022-07-18T02:17:50;6.50;;;3.15;;
40449;SDS011;41787;53.570;10.032;2022-07-18T02:20:16;7.18;;;2.47;;
40449;SDS011;41787;53.570;10.032;2022-07-18T02:22:42;7.75;;;2.95;;
40449;SDS011;41787;53.570;10.032;2022-07-18T02:25:08;5.35;;;2.80;;
40449;SDS011;41787;53.570;10.032;2022-07-18T02:27:34;4.78;;;2.85;;
40449;SDS011;41787;53.570;10.032;2022-07-18T02:30:00;6.63;;;2.60;;
40449;SDS011;41787;53.570;10.032;2022-07-18T02:32:26;6.22;;;2.97;;
40449;SDS011;41787;53.570;10.032;2022-07-18T02:34:52;4.50;;;2.60;;
40449;SDS011;41787;53.570;10.032;2022-07-18T02:37:19;4.80;;;2.97;;
40449;SDS011;41787;53.570;10.032;2022-07-18T02:39:44;3.60;;;2.70;;
40449;SDS011;41787;53.570;10.032;2022-07-18T02:42:10;6.38;;;2.92;;
40449;SDS011;41787;53.570;10.032;2022-07-18T02:44:36;5.45;;;2.42;;
40449;SDS011;41787;53.570;10.032;2022-07-18T02:47:03;4.15;;;2.63;;
40449;SDS011;41787;53.570;10.032;2022-07-18T02:49:29;5.28;;;2.63;;
40449;SDS011;41787;53.570;10.032;2022-07-18T02:51:57;3.45;;;2.40;;
40449;SDS011;41787;53.570;10.032;2022-07-18T02:54:24;3.88;;;2.58;;
40449;SDS011;41787;53.570;10.032;2022-07-18T02:56:50;7.38;;;2.97;;
40449;SDS011;41787;53.570;10.032;2022-07-18T02:59:16;6.95;;;3.10;;
40449;SDS011;41787;53.570;10.032;2022-07-18T03:01:42;5.78;;;2.75;;
40449;SDS011;41787;53.570;10.032;2022-07-18T03:04:08;5.60;;;3.00;;
40449;SDS011;41787;53.570;10.032;2022-07-18T03:06:34;6.55;;;2.85;;
40449;SDS011;41787;53.570;10.032;2022-07-18T03:09:00;7.13;;;2.63;;
40449;SDS011;41787;53.570;10.032;2022-07-18T03:11:26;6.55;;;3.00;;
40449;SDS011;41787;53.570;10.032;2022-07-18T03:13:52;5.35;;;2.50;;
40449;SDS011;41787;53.570;10.032;2022-07-18T03:16:18;6.50;;;3.15;;
40449;SDS011;41787;53.570;10.032;2022-07-18T03:18:44;5.53;;;2.72;;
40449;SDS011;41787;53.570;10.032;2022-07-18T03:21:10;6.05;;;2.70;;
40449;SDS011;41787;53.570;10.032;2022-07-18T03:23:36;6.03;;;2.90;;
40449;SDS011;41787;53.570;10.032;2022-07-18T03:26:02;3.75;;;2.42;;
40449;SDS011;41787;53.570;10.032;2022-07-18T03:28:28;8.48;;;3.08;;
40449;SDS011;41787;53.570;10.032;2022-07-18T03:30:54;3.13;;;2.30;;
40449;SDS011;41787;53.570;10.032;2022-07-18T03:33:23;5.97;;;2.95;;
40449;SDS011;41787;53.570;10.032;2022-07-18T03:35:49;4.63;;;2.72;;
40449;SDS011;41787;53.570;10.032;2022-07-18T03:38:15;6.28;;;2.75;;
40449;SDS011;41787;53.570;10.032;2022-07-18T03:40:41;6.03;;;2.97;;
40449;SDS011;41787;53.570;10.032;2022-07-18T03:43:07;5.32;;;2.80;;
40449;SDS011;41787;53.570;10.032;2022-07-18T03:45:33;9.60;;;3.47;;
40449;SDS011;41787;53.570;10.032;2022-07-18T03:47:59;6.82;;;3.40;;
40449;SDS011;41787;53.570;10.032;2022-07-18T03:50:25;7.57;;;3.03;;
40449;SDS011;41787;53.570;10.032;2022-07-18T03:52:52;9.07;;;3.40;;
40449;SDS011;41787;53.570;10.032;2022-07-18T03:55:18;4.90;;;2.90;;
40449;SDS011;41787;53.570;10.032;2022-07-18T03:57:44;4.15;;;2.92;;
40449;SDS011;41787;53.570;10.032;2022-07-18T04:00:10;6.40;;;3.13;;
40449;SDS011;41787;53.570;10.032;2022-07-18T04:02:37;5.75;;;2.90;;
40449;SDS011;41787;53.570;10.032;2022-07-18T04:05:03;6.65;;;3.40;;
40449;SDS011;41787;53.570;10.032;2022-07-18T04:07:29;6.82;;;3.08;;
40449;SDS011;41787;53.570;10.032;2022-07-18T04:09:55;5.85;;;3.17;;
40449;SDS011;41787;53.570;10.032;2022-07-18T04:12:21;5.55;;;3.10;;
40449;SDS011;41787;53.570;10.032;2022-07-18T04:14:47;5.90;;;3.40;;
40449;SDS011;41787;53.570;10.032;2022-07-18T04:17:13;5.78;;;2.90;;
40449;SDS011;41787;53.570;10.032;2022-07-18T04:19:39;7.68;;;3.40;;
40449;SDS011;41787;53.570;10.032;2022-07-18T04:22:05;6.25;;;3.20;;
40449;SDS011;41787;53.570;10.032;2022-07-18T04:24:31;5.88;;;3.20;;
40449;SDS011;41787;53.570;10.032;2022-07-18T04:26:57;4.00;;;3.05;;
40449;SDS011;41787;53.570;10.032;2022-07-18T04:29:23;4.75;;;3.35;;
40449;SDS011;41787;53.570;10.032;2022-07-18T04:31:49;8.32;;;3.75;;
40449;SDS011;41787;53.570;10.032;2022-07-18T04:34:15;7.97;;;3.17;;
40449;SDS011;41787;53.570;10.032;2022-07-18T04:36:41;7.05;;;3.40;;
40449;SDS011;41787;53.570;10.032;2022-07-18T04:39:07;5.80;;;3.53;;
40449;SDS011;41787;53.570;10.032;2022-07-18T04:41:33;5.72;;;3.33;;
40449;SDS011;41787;53.570;10.032;2022-07-18T04:43:58;6.75;;;3.97;;
40449;SDS011;41787;53.570;10.032;2022-07-18T04:46:24;8.10;;;3.78;;
40449;SDS011;41787;53.570;10.032;2022-07-18T04:48:50;5.70;;;3.47;;
40449;SDS011;41787;53.570;10.032;2022-07-18T04:51:16;6.28;;;3.92;;
40449;SDS011;41787;53.570;10.032;2022-07-18T04:53:42;5.97;;;3.90;;
40449;SDS011;41787;53.570;10.032;2022-07-18T04:56:08;6.70;;;3.67;;
40449;SDS011;41787;53.570;10.032;2022-07-18T04:58:34;7.32;;;3.45;;
40449;SDS011;41787;53.570;10.032;2022-07-18T05:01:00;8.95;;;4.50;;
40449;SDS011;41787;53.570;10.032;2022-07-18T05:03:26;10.35;;;3.92;;
40449;SDS011;41787;53.570;10.032;2022-07-18T05:05:52;6.43;;;3.90;;
40449;SDS011;41787;53.570;10.032;2022-07-18T05:08:18;6.07;;;3.20;;
40449;SDS011;41787;53.570;10.032;2022-07-18T05:10:44;8.25;;;3.97;;
40449;SDS011;41787;53.570;10.032;2022-07-18T05:13:10;11.23;;;3.42;;
40449;SDS011;41787;53.570;10.032;2022-07-18T05:15:36;12.07;;;3.92;;
40449;SDS011;41787;53.570;10.032;2022-07-18T05:18:02;6.60;;;4.00;;
40449;SDS011;41787;53.570;10.032;2022-07-18T05:20:28;7.43;;;3.58;;
40449;SDS011;41787;53.570;10.032;2022-07-18T05:22:53;8.48;;;3.65;;
40449;SDS011;41787;53.570;10.032;2022-07-18T05:25:20;6.38;;;3.50;;
40449;SDS011;41787;53.570;10.032;2022-07-18T05:27:49;8.98;;;5.50;;
40449;SDS011;41787;53.570;10.032;2022-07-18T05:30:15;12.45;;;3.70;;
40449;SDS011;41787;53.570;10.032;2022-07-18T05:32:41;12.80;;;3.75;;
40449;SDS011;41787;53.570;10.032;2022-07-18T05:35:08;7.50;;;3.35;;
40449;SDS011;41787;53.570;10.032;2022-07-18T05:37:34;7.75;;;3.78;;
40449;SDS011;41787;53.570;10.032;2022-07-18T05:40:04;8.05;;;3.70;;
40449;SDS011;41787;53.570;10.032;2022-07-18T05:42:30;10.95;;;5.22;;
40449;SDS011;41787;53.570;10.032;2022-07-18T05:44:56;10.40;;;4.90;;
40449;SDS011;41787;53.570;10.032;2022-07-18T05:47:22;12.63;;;6.55;;
40449;SDS011;41787;53.570;10.032;2022-07-18T05:49:48;12.93;;;4.25;;
40449;SDS011;41787;53.570;10.032;2022-07-18T05:52:14;14.00;;;5.05;;
40449;SDS011;41787;53.570;10.032;2022-07-18T05:54:40;12.18;;;3.92;;
40449;SDS011;41787;53.570;10.032;2022-07-18T05:57:06;11.45;;;4.22;;
40449;SDS011;41787;53.570;10.032;2022-07-18T05:59:32;9.23;;;3.67;;
40449;SDS011;41787;53.570;10.032;2022-07-18T06:01:58;11.00;;;3.75;;
40449;SDS011;41787;53.570;10.032;2022-07-18T06:04:24;11.57;;;4.13;;
40449;SDS011;41787;53.570;10.032;2022-07-18T06:06:50;13.60;;;4.03;;
40449;SDS011;41787;53.570;10.032;2022-07-18T06:09:16;13.02;;;3.65;;
40449;SDS011;41787;53.570;10.032;2022-07-18T06:11:42;7.95;;;3.10;;
40449;SDS011;41787;53.570;10.032;2022-07-18T06:14:08;9.02;;;3.97;;
40449;SDS011;41787;53.570;10.032;2022-07-18T06:16:34;9.98;;;3.40;;
40449;SDS011;41787;53.570;10.032;2022-07-18T06:19:01;16.88;;;4.10;;
40449;SDS011;41787;53.570;10.032;2022-07-18T06:21:28;11.10;;;3.83;;
40449;SDS011;41787;53.570;10.032;2022-07-18T06:23:56;12.35;;;3.65;;
40449;SDS011;41787;53.570;10.032;2022-07-18T06:26:22;10.07;;;3.88;;
40449;SDS011;41787;53.570;10.032;2022-07-18T06:28:48;14.48;;;5.63;;
40449;SDS011;41787;53.570;10.032;2022-07-18T06:31:14;11.60;;;3.67;;
40449;SDS011;41787;53.570;10.032;2022-07-18T06:33:41;13.05;;;4.82;;
40449;SDS011;41787;53.570;10.032;2022-07-18T06:36:07;13.25;;;3.75;;
40449;SDS011;41787;53.570;10.032;2022-07-18T06:38:36;9.80;;;3.85;;
40449;SDS011;41787;53.570;10.032;2022-07-18T06:41:02;14.25;;;7.25;;
40449;SDS011;41787;53.570;10.032;2022-07-18T06:43:28;9.60;;;5.45;;
40449;SDS011;41787;53.570;10.032;2022-07-18T06:45:54;8.75;;;3.88;;
40449;SDS011;41787;53.570;10.032;2022-07-18T06:48:22;8.65;;;4.47;;
40449;SDS011;41787;53.570;10.032;2022-07-18T06:50:48;9.75;;;5.03;;
40449;SDS011;41787;53.570;10.032;2022-07-18T06:53:14;6.80;;;3.85;;
40449;SDS011;41787;53.570;10.032;2022-07-18T06:55:40;7.20;;;3.80;;
40449;SDS011;41787;53.570;10.032;2022-07-18T06:58:07;7.20;;;4.32;;
40449;SDS011;41787;53.570;10.032;2022-07-18T07:00:34;7.00;;;3.67;;
40449;SDS011;41787;53.570;10.032;2022-07-18T07:03:00;9.88;;;3.88;;
40449;SDS011;41787;53.570;10.032;2022-07-18T07:05:26;7.90;;;3.63;;
40449;SDS011;41787;53.570;10.032;2022-07-18T07:07:52;9.95;;;4.07;;
40449;SDS011;41787;53.570;10.032;2022-07-18T07:10:18;8.52;;;3.50;;
40449;SDS011;41787;53.570;10.032;2022-07-18T07:12:45;5.47;;;3.35;;
40449;SDS011;41787;53.570;10.032;2022-07-18T07:15:12;6.97;;;3.70;;
40449;SDS011;41787;53.570;10.032;2022-07-18T07:17:38;10.07;;;3.70;;
40449;SDS011;41787;53.570;10.032;2022-07-18T07:20:04;5.97;;;3.80;;
40449;SDS011;41787;53.570;10.032;2022-07-18T07:22:31;13.02;;;3.97;;
40449;SDS011;41787;53.570;10.032;2022-07-18T07:24:57;9.18;;;4.25;;
40449;SDS011;41787;53.570;10.032;2022-07-18T07:27:23;7.55;;;3.88;;
40449;SDS011;41787;53.570;10.032;2022-07-18T07:29:49;8.32;;;4.00;;
40449;SDS011;41787;53.570;10.032;2022-07-18T07:32:15;8.82;;;4.60;;
40449;SDS011;41787;53.570;10.032;2022-07-18T07:34:41;8.38;;;4.60;;
40449;SDS011;41787;53.570;10.032;2022-07-18T07:37:07;8.60;;;4.32;;
40449;SDS011;41787;53.570;10.032;2022-07-18T07:39:33;10.43;;;4.47;;
40449;SDS011;41787;53.570;10.032;2022-07-18T07:41:59;8.07;;;3.88;;
40449;SDS011;41787;53.570;10.032;2022-07-18T07:44:25;6.47;;;4.00;;
40449;SDS011;41787;53.570;10.032;2022-07-18T07:46:51;7.18;;;4.43;;
40449;SDS011;41787;53.570;10.032;2022-07-18T07:49:17;17.08;;;5.43;;
40449;SDS011;41787;53.570;10.032;2022-07-18T07:51:43;11.95;;;4.55;;
40449;SDS011;41787;53.570;10.032;2022-07-18T07:54:09;7.53;;;4.45;;
40449;SDS011;41787;53.570;10.032;2022-07-18T07:56:35;8.45;;;4.18;;
40449;SDS011;41787;53.570;10.032;2022-07-18T07:59:00;6.65;;;4.03;;
40449;SDS011;41787;53.570;10.032;2022-07-18T08:01:26;7.72;;;4.75;;
40449;SDS011;41787;53.570;10.032;2022-07-18T08:03:52;14.32;;;4.90;;
40449;SDS011;41787;53.570;10.032;2022-07-18T08:06:18;8.57;;;4.60;;
40449;SDS011;41787;53.570;10.032;2022-07-18T08:08:44;6.97;;;4.38;;
40449;SDS011;41787;53.570;10.032;2022-07-18T08:11:10;8.82;;;4.35;;
40449;SDS011;41787;53.570;10.032;2022-07-18T08:13:36;6.85;;;4.57;;
40449;SDS011;41787;53.570;10.032;2022-07-18T08:16:02;8.85;;;4.57;;
40449;SDS011;41787;53.570;10.032;2022-07-18T08:18:28;6.43;;;4.75;;
40449;SDS011;41787;53.570;10.032;2022-07-18T08:20:54;7.22;;;4.80;;
40449;SDS011;41787;53.570;10.032;2022-07-18T08:23:20;8.70;;;4.45;;
40449;SDS011;41787;53.570;10.032;2022-07-18T08:25:49;6.45;;;4.65;;
40449;SDS011;41787;53.570;10.032;2022-07-18T08:28:15;8.00;;;4.72;;
40449;SDS011;41787;53.570;10.032;2022-07-18T08:30:41;6.43;;;4.32;;
40449;SDS011;41787;53.570;10.032;2022-07-18T08:33:08;8.82;;;4.93;;
40449;SDS011;41787;53.570;10.032;2022-07-18T08:35:34;8.35;;;4.60;;
40449;SDS011;41787;53.570;10.032;2022-07-18T08:38:00;10.77;;;4.53;;
40449;SDS011;41787;53.570;10.032;2022-07-18T08:40:27;11.75;;;4.25;;
40449;SDS011;41787;53.570;10.032;2022-07-18T08:42:53;9.30;;;4.63;;
40449;SDS011;41787;53.570;10.032;2022-07-18T08:45:20;13.20;;;4.53;;
40449;SDS011;41787;53.570;10.032;2022-07-18T08:47:47;7.97;;;4.00;;
40449;SDS011;41787;53.570;10.032;2022-07-18T08:50:13;12.15;;;4.55;;
40449;SDS011;41787;53.570;10.032;2022-07-18T08:52:39;10.13;;;4.70;;
40449;SDS011;41787;53.570;10.032;2022-07-18T08:55:08;12.35;;;4.60;;
40449;SDS011;41787;53.570;10.032;2022-07-18T08:57:35;12.18;;;4.38;;
40449;SDS011;41787;53.570;10.032;2022-07-18T09:00:03;7.85;;;3.95;;
40449;SDS011;41787;53.570;10.032;2022-07-18T09:02:30;6.18;;;3.67;;
40449;SDS011;41787;53.570;10.032;2022-07-18T09:04:56;8.43;;;4.25;;
40449;SDS011;41787;53.570;10.032;2022-07-18T09:07:26;14.95;;;4.35;;
40449;SDS011;41787;53.570;10.032;2022-07-18T09:09:57;12.10;;;4.00;;
40449;SDS011;41787;53.570;10.032;2022-07-18T09:12:24;6.97;;;3.33;;
40449;SDS011;41787;53.570;10.032;2022-07-18T09:14:50;7.25;;;3.60;;
40449;SDS011;41787;53.570;10.032;2022-07-18T09:17:17;8.68;;;3.60;;
40449;SDS011;41787;53.570;10.032;2022-07-18T09:22:29;5.60;;;3.13;;
40449;SDS011;41787;53.570;10.032;2022-07-18T09:27:32;11.70;;;4.30;;
40449;SDS011;41787;53.570;10.032;2022-07-18T09:30:32;8.15;;;3.47;;
40449;SDS011;41787;53.570;10.032;2022-07-18T09:35:45;6.82;;;4.00;;
40449;SDS011;41787;53.570;10.032;2022-07-18T09:38:12;5.28;;;3.30;;
40449;SDS011;41787;53.570;10.032;2022-07-18T09:40:39;8.20;;;3.20;;
40449;SDS011;41787;53.570;10.032;2022-07-18T09:43:06;7.97;;;3.65;;
40449;SDS011;41787;53.570;10.032;2022-07-18T09:48:03;7.13;;;4.10;;
40449;SDS011;41787;53.570;10.032;2022-07-18T09:50:31;8.10;;;3.42;;
40449;SDS011;41787;53.570;10.032;2022-07-18T09:53:02;11.80;;;3.97;;
40449;SDS011;41787;53.570;10.032;2022-07-18T09:55:29;13.07;;;3.75;;
40449;SDS011;41787;53.570;10.032;2022-07-18T09:58:02;12.02;;;3.80;;
40449;SDS011;41787;53.570;10.032;2022-07-18T10:00:29;5.85;;;3.90;;
40449;SDS011;41787;53.570;10.032;2022-07-18T10:02:56;9.02;;;3.40;;
40449;SDS011;41787;53.570;10.032;2022-07-18T10:05:23;5.35;;;3.30;;
40449;SDS011;41787;53.570;10.032;2022-07-18T10:07:49;8.18;;;3.90;;
40449;SDS011;41787;53.570;10.032;2022-07-18T10:10:15;6.47;;;3.05;;
40449;SDS011;41787;53.570;10.032;2022-07-18T10:12:42;6.97;;;3.70;;
40449;SDS011;41787;53.570;10.032;2022-07-18T10:15:08;7.45;;;3.53;;
40449;SDS011;41787;53.570;10.032;2022-07-18T10:17:34;5.30;;;3.10;;
40449;SDS011;41787;53.570;10.032;2022-07-18T10:20:04;7.90;;;3.40;;
40449;SDS011;41787;53.570;10.032;2022-07-18T10:22:34;6.35;;;3.38;;
40449;SDS011;41787;53.570;10.032;2022-07-18T10:25:03;7.20;;;3.45;;
40449;SDS011;41787;53.570;10.032;2022-07-18T10:27:29;7.15;;;3.65;;
40449;SDS011;41787;53.570;10.032;2022-07-18T10:30:13;8.38;;;3.35;;
40449;SDS011;41787;53.570;10.032;2022-07-18T10:32:39;8.65;;;3.55;;
40449;SDS011;41787;53.570;10.032;2022-07-18T10:35:06;5.40;;;3.35;;
40449;SDS011;41787;53.570;10.032;2022-07-18T10:37:32;8.13;;;3.40;;
40449;SDS011;41787;53.570;10.032;2022-07-18T10:40:13;6.30;;;3.30;;
40449;SDS011;41787;53.570;10.032;2022-07-18T10:42:45;5.50;;;3.33;;
40449;SDS011;41787;53.570;10.032;2022-07-18T10:46:12;7.82;;;3.28;;
40449;SDS011;41787;53.570;10.032;2022-07-18T10:56:17;21.83;;;3.70;;
40449;SDS011;41787;53.570;10.032;2022-07-18T10:58:43;11.93;;;3.90;;
40449;SDS011;41787;53.570;10.032;2022-07-18T11:01:18;9.00;;;3.58;;
40449;SDS011;41787;53.570;10.032;2022-07-18T11:03:45;6.90;;;3.20;;
40449;SDS011;41787;53.570;10.032;2022-07-18T11:06:11;6.35;;;3.83;;
40449;SDS011;41787;53.570;10.032;2022-07-18T11:08:37;8.77;;;3.85;;
40449;SDS011;41787;53.570;10.032;2022-07-18T11:11:04;7.05;;;3.53;;
40449;SDS011;41787;53.570;10.032;2022-07-18T11:13:30;6.05;;;3.67;;
40449;SDS011;41787;53.570;10.032;2022-07-18T11:16:03;5.15;;;3.35;;
40449;SDS011;41787;53.570;10.032;2022-07-18T11:19:19;12.20;;;3.78;;
40449;SDS011;41787;53.570;10.032;2022-07-18T11:21:24;10.68;;;3.85;;
40449;SDS011;41787;53.570;10.032;2022-07-18T11:23:51;7.00;;;3.13;;
40449;SDS011;41787;53.570;10.032;2022-07-18T11:26:19;6.90;;;3.38;;
40449;SDS011;41787;53.570;10.032;2022-07-18T11:28:46;7.32;;;3.75;;
40449;SDS011;41787;53.570;10.032;2022-07-18T11:31:16;6.90;;;3.65;;
40449;SDS011;41787;53.570;10.032;2022-07-18T11:33:44;6.85;;;3.20;;
40449;SDS011;41787;53.570;10.032;2022-07-18T11:36:11;5.35;;;3.63;;
40449;SDS011;41787;53.570;10.032;2022-07-18T11:38:50;5.78;;;4.00;;
40449;SDS011;41787;53.570;10.032;2022-07-18T11:41:17;11.98;;;3.90;;
40449;SDS011;41787;53.570;10.032;2022-07-18T11:43:43;8.82;;;3.63;;
40449;SDS011;41787;53.570;10.032;2022-07-18T11:46:10;6.15;;;3.42;;
40449;SDS011;41787;53.570;10.032;2022-07-18T11:48:37;5.10;;;3.38;;
40449;SDS011;41787;53.570;10.032;2022-07-18T11:51:19;5.03;;;3.28;;
40449;SDS011;41787;53.570;10.032;2022-07-18T11:53:49;6.93;;;2.97;;
40449;SDS011;41787;53.570;10.032;2022-07-18T11:56:16;8.25;;;3.40;;
40449;SDS011;41787;53.570;10.032;2022-07-18T11:58:43;5.78;;;3.22;;
40449;SDS011;41787;53.570;10.032;2022-07-18T12:01:09;8.32;;;3.50;;
40449;SDS011;41787;53.570;10.032;2022-07-18T12:03:42;8.15;;;3.53;;
40449;SDS011;41787;53.570;10.032;2022-07-18T12:06:13;5.32;;;3.00;;
40449;SDS011;41787;53.570;10.032;2022-07-18T12:08:43;6.25;;;3.28;;
40449;SDS011;41787;53.570;10.032;2022-07-18T12:11:17;5.47;;;3.50;;
40449;SDS011;41787;53.570;10.032;2022-07-18T12:13:51;5.03;;;2.80;;
40449;SDS011;41787;53.570;10.032;2022-07-18T12:18:56;9.60;;;3.20;;
40449;SDS011;41787;53.570;10.032;2022-07-18T12:23:48;4.93;;;3.00;;
40449;SDS011;41787;53.570;10.032;2022-07-18T12:26:30;5.63;;;3.47;;
40449;SDS011;41787;53.570;10.032;2022-07-18T12:29:06;4.43;;;3.17;;
40449;SDS011;41787;53.570;10.032;2022-07-18T12:31:51;7.50;;;3.28;;
40449;SDS011;41787;53.570;10.032;2022-07-18T12:34:17;4.47;;;2.83;;
40449;SDS011;41787;53.570;10.032;2022-07-18T12:36:49;7.20;;;3.15;;
40449;SDS011;41787;53.570;10.032;2022-07-18T12:39:24;7.57;;;3.22;;
40449;SDS011;41787;53.570;10.032;2022-07-18T12:41:50;4.05;;;2.70;;
40449;SDS011;41787;53.570;10.032;2022-07-18T12:44:17;4.70;;;3.20;;
40449;SDS011;41787;53.570;10.032;2022-07-18T12:46:43;5.30;;;2.78;;
40449;SDS011;41787;53.570;10.032;2022-07-18T12:49:09;9.35;;;2.95;;
40449;SDS011;41787;53.570;10.032;2022-07-18T12:51:35;8.07;;;3.20;;
40449;SDS011;41787;53.570;10.032;2022-07-18T12:54:01;5.18;;;2.75;;
40449;SDS011;41787;53.570;10.032;2022-07-18T12:56:27;5.57;;;3.00;;
40449;SDS011;41787;53.570;10.032;2022-07-18T12:58:53;3.92;;;3.00;;
40449;SDS011;41787;53.570;10.032;2022-07-18T13:01:19;5.18;;;3.10;;
40449;SDS011;41787;53.570;10.032;2022-07-18T13:03:45;4.38;;;2.50;;
40449;SDS011;41787;53.570;10.032;2022-07-18T13:06:11;3.63;;;2.53;;
40449;SDS011;41787;53.570;10.032;2022-07-18T13:08:36;6.88;;;3.22;;
40449;SDS011;41787;53.570;10.032;2022-07-18T13:11:02;9.07;;;3.15;;
40449;SDS011;41787;53.570;10.032;2022-07-18T13:13:28;12.05;;;2.47;;
40449;SDS011;41787;53.570;10.032;2022-07-18T13:15:54;3.80;;;2.88;;
40449;SDS011;41787;53.570;10.032;2022-07-18T13:18:20;5.30;;;2.85;;
40449;SDS011;41787;53.570;10.032;2022-07-18T13:20:46;11.75;;;2.80;;
40449;SDS011;41787;53.570;10.032;2022-07-18T13:23:12;7.60;;;2.60;;
40449;SDS011;41787;53.570;10.032;2022-07-18T13:25:40;5.43;;;2.53;;
40449;SDS011;41787;53.570;10.032;2022-07-18T13:28:06;6.53;;;2.65;;
40449;SDS011;41787;53.570;10.032;2022-07-18T13:30:32;5.82;;;2.15;;
40449;SDS011;41787;53.570;10.032;2022-07-18T13:32:58;4.70;;;2.13;;
40449;SDS011;41787;53.570;10.032;2022-07-18T13:35:24;5.88;;;2.40;;
40449;SDS011;41787;53.570;10.032;2022-07-18T13:37:51;7.35;;;2.45;;
40449;SDS011;41787;53.570;10.032;2022-07-18T13:40:16;6.30;;;2.28;;
40449;SDS011;41787;53.570;10.032;2022-07-18T13:42:43;4.95;;;1.88;;
40449;SDS011;41787;53.570;10.032;2022-07-18T13:45:09;4.68;;;1.73;;
40449;SDS011;41787;53.570;10.032;2022-07-18T13:47:38;3.67;;;2.03;;
40449;SDS011;41787;53.570;10.032;2022-07-18T13:50:06;4.93;;;2.30;;
40449;SDS011;41787;53.570;10.032;2022-07-18T13:52:32;10.50;;;2.20;;
40449;SDS011;41787;53.570;10.032;2022-07-18T13:54:58;4.40;;;1.90;;
40449;SDS011;41787;53.570;10.032;2022-07-18T13:57:24;3.95;;;2.60;;
40449;SDS011;41787;53.570;10.032;2022-07-18T13:59:50;4.88;;;2.00;;
40449;SDS011;41787;53.570;10.032;2022-07-18T14:02:16;3.53;;;2.08;;
40449;SDS011;41787;53.570;10.032;2022-07-18T14:04:42;7.22;;;2.45;;
40449;SDS011;41787;53.570;10.032;2022-07-18T14:07:08;5.18;;;2.25;;
40449;SDS011;41787;53.570;10.032;2022-07-18T14:09:36;2.78;;;2.20;;
40449;SDS011;41787;53.570;10.032;2022-07-18T14:12:02;3.38;;;2.28;;
40449;SDS011;41787;53.570;10.032;2022-07-18T14:14:28;5.05;;;2.55;;
40449;SDS011;41787;53.570;10.032;2022-07-18T14:16:54;3.70;;;2.15;;
40449;SDS011;41787;53.570;10.032;2022-07-18T14:19:20;2.55;;;1.88;;
40449;SDS011;41787;53.570;10.032;2022-07-18T14:21:46;4.20;;;2.22;;
40449;SDS011;41787;53.570;10.032;2022-07-18T14:24:12;26.00;;;3.65;;
40449;SDS011;41787;53.570;10.032;2022-07-18T14:26:38;6.90;;;2.70;;
40449;SDS011;41787;53.570;10.032;2022-07-18T14:29:04;6.65;;;2.40;;
40449;SDS011;41787;53.570;10.032;2022-07-18T14:31:30;6.68;;;2.25;;
40449;SDS011;41787;53.570;10.032;2022-07-18T14:33:56;2.97;;;2.00;;
40449;SDS011;41787;53.570;10.032;2022-07-18T14:36:22;3.47;;;2.00;;
40449;SDS011;41787;53.570;10.032;2022-07-18T14:38:48;3.75;;;2.60;;
40449;SDS011;41787;53.570;10.032;2022-07-18T14:41:14;4.25;;;2.38;;
40449;SDS011;41787;53.570;10.032;2022-07-18T14:43:40;4.72;;;2.20;;
40449;SDS011;41787;53.570;10.032;2022-07-18T14:46:06;5.38;;;2.50;;
40449;SDS011;41787;53.570;10.032;2022-07-18T14:48:32;3.67;;;2.35;;
40449;SDS011;41787;53.570;10.032;2022-07-18T14:50:58;4.60;;;2.40;;
40449;SDS011;41787;53.570;10.032;2022-07-18T14:53:24;4.35;;;2.42;;
40449;SDS011;41787;53.570;10.032;2022-07-18T14:55:50;4.50;;;2.33;;